Aérodrome :
LOGIN :

S'inscrire | Disclaimer

   EN    FR    IT 

 










Légende :    VFR   VFR Marginal   IFR   IFR Intensif   IFR Très Intensif
Visi : 
Plafond : 
>= 8 km
>= 3000ft
5 à 8 km
1000 à 3000 ft
1500m à 5 km
500 à 1000 ft
800 à 1500m
200 à 500 ft
< 800m
< 200 ft
Symboles :   Orages  Brouillard  Fortes neiges  Fortes précipitations  Vent > 20 kt
SIGMETs :   Divers  Orages  Givrage  Turbulence  Onde Orograph.  Cendres Volcan.






- Altitude de l'aérodrome : 1959 ft
- Code IATA : HOQ


EDQM - Hof Plauen

DERNIER METAR :
  • 162120Z AUTO 28002KT 9999 // NCD 17/11 Q1014

METARs EXPIRÉS :
  • 162050Z AUTO 00000KT 9999 // NCD 18/11 Q1013
  • 162020Z AUTO 00000KT 9999 // NCD 18/11 Q1013
  • 161950Z AUTO 26001KT 9999 // NCD 18/10 Q1013
  • 161920Z AUTO 28004KT 9999 // NCD 20/11 Q1013
  • 161850Z AUTO 25003KT 9999 // NCD 20/11 Q1013

TAF TAF EDQM
Valide du 16 à 18h jusqu'au 17 à 03h UTC


161700Z 1618/1703 VRB03KT CAVOK



MET'MAP, la Météo Aéronautique d'un coup d'oeil ! - Copyright ORBIFLY Décembre 2007 - Disclaimer

ORBIFLY MET'MAP TEAM :

Programmation & Développement : Alexandra Zaïnal
Sur une idée originale de : Baudouin d'Aumeries
Soutien technique & logistique : Manuel Goepfert
Assistance : Marc-Olivier Méhu




SOURCES & CREDITS :

   NOAA